sensor_id;sensor_type;location;lat;lon;timestamp;temperature;humidity
68924;DHT22;55961;52.156;20.942;2023-11-21T00:00:35;0.80;91.90
68924;DHT22;55961;52.156;20.942;2023-11-21T00:03:21;0.80;92.00
68924;DHT22;55961;52.156;20.942;2023-11-21T00:05:49;0.80;92.10
68924;DHT22;55961;52.156;20.942;2023-11-21T00:08:15;0.70;92.30
68924;DHT22;55961;52.156;20.942;2023-11-21T00:10:41;0.70;92.30
68924;DHT22;55961;52.156;20.942;2023-11-21T00:13:06;0.70;92.20
68924;DHT22;55961;52.156;20.942;2023-11-21T00:15:33;0.70;92.20
68924;DHT22;55961;52.156;20.942;2023-11-21T00:18:00;0.70;92.30
68924;DHT22;55961;52.156;20.942;2023-11-21T00:20:26;0.60;92.40
68924;DHT22;55961;52.156;20.942;2023-11-21T00:22:51;0.60;92.70
68924;DHT22;55961;52.156;20.942;2023-11-21T00:25:18;0.60;92.80
68924;DHT22;55961;52.156;20.942;2023-11-21T00:27:43;0.70;92.90
68924;DHT22;55961;52.156;20.942;2023-11-21T00:30:10;0.70;92.90
68924;DHT22;55961;52.156;20.942;2023-11-21T00:32:37;0.70;92.90
68924;DHT22;55961;52.156;20.942;2023-11-21T00:35:03;0.70;92.70
68924;DHT22;55961;52.156;20.942;2023-11-21T00:37:29;0.70;92.60
68924;DHT22;55961;52.156;20.942;2023-11-21T00:39:56;0.70;92.60
68924;DHT22;55961;52.156;20.942;2023-11-21T00:42:22;0.70;92.70
68924;DHT22;55961;52.156;20.942;2023-11-21T00:44:48;0.70;92.50
68924;DHT22;55961;52.156;20.942;2023-11-21T00:47:14;0.60;92.50
68924;DHT22;55961;52.156;20.942;2023-11-21T00:49:40;0.60;92.50
68924;DHT22;55961;52.156;20.942;2023-11-21T00:52:06;0.60;92.50
68924;DHT22;55961;52.156;20.942;2023-11-21T00:54:32;0.60;92.60
68924;DHT22;55961;52.156;20.942;2023-11-21T00:56:59;0.60;92.80
68924;DHT22;55961;52.156;20.942;2023-11-21T00:59:25;0.60;92.80
68924;DHT22;55961;52.156;20.942;2023-11-21T01:01:51;0.60;92.60
68924;DHT22;55961;52.156;20.942;2023-11-21T01:04:17;0.60;92.40
68924;DHT22;55961;52.156;20.942;2023-11-21T01:06:43;0.60;92.50
68924;DHT22;55961;52.156;20.942;2023-11-21T01:09:09;0.60;92.60
68924;DHT22;55961;52.156;20.942;2023-11-21T01:11:35;0.60;92.60
68924;DHT22;55961;52.156;20.942;2023-11-21T01:14:03;0.60;92.80
68924;DHT22;55961;52.156;20.942;2023-11-21T01:16:30;0.60;92.80
68924;DHT22;55961;52.156;20.942;2023-11-21T01:18:59;0.60;92.50
68924;DHT22;55961;52.156;20.942;2023-11-21T01:21:25;0.60;92.50
68924;DHT22;55961;52.156;20.942;2023-11-21T01:23:51;0.60;92.30
68924;DHT22;55961;52.156;20.942;2023-11-21T01:26:17;0.60;92.20
68924;DHT22;55961;52.156;20.942;2023-11-21T01:28:43;0.60;92.10
68924;DHT22;55961;52.156;20.942;2023-11-21T01:31:08;0.60;92.00
68924;DHT22;55961;52.156;20.942;2023-11-21T01:33:35;0.50;91.90
68924;DHT22;55961;52.156;20.942;2023-11-21T01:36:00;0.50;91.90
68924;DHT22;55961;52.156;20.942;2023-11-21T01:38:26;0.50;91.80
68924;DHT22;55961;52.156;20.942;2023-11-21T01:40:52;0.50;91.60
68924;DHT22;55961;52.156;20.942;2023-11-21T01:43:18;0.50;91.40
68924;DHT22;55961;52.156;20.942;2023-11-21T01:45:44;0.40;91.50
68924;DHT22;55961;52.156;20.942;2023-11-21T01:48:13;0.50;91.60
68924;DHT22;55961;52.156;20.942;2023-11-21T01:50:40;0.50;91.40
68924;DHT22;55961;52.156;20.942;2023-11-21T01:53:06;0.40;91.20
68924;DHT22;55961;52.156;20.942;2023-11-21T01:55:32;0.40;91.40
68924;DHT22;55961;52.156;20.942;2023-11-21T01:57:59;0.40;91.30
68924;DHT22;55961;52.156;20.942;2023-11-21T02:00:26;0.40;91.30
68924;DHT22;55961;52.156;20.942;2023-11-21T02:02:53;0.40;91.30
68924;DHT22;55961;52.156;20.942;2023-11-21T02:05:20;0.40;91.40
68924;DHT22;55961;52.156;20.942;2023-11-21T02:07:47;0.30;91.30
68924;DHT22;55961;52.156;20.942;2023-11-21T02:10:14;0.30;91.30
68924;DHT22;55961;52.156;20.942;2023-11-21T02:12:44;0.30;91.30
68924;DHT22;55961;52.156;20.942;2023-11-21T02:15:15;0.30;91.40
68924;DHT22;55961;52.156;20.942;2023-11-21T02:17:42;0.30;91.30
68924;DHT22;55961;52.156;20.942;2023-11-21T02:20:13;0.30;91.30
68924;DHT22;55961;52.156;20.942;2023-11-21T02:22:53;0.30;91.30
68924;DHT22;55961;52.156;20.942;2023-11-21T02:25:24;0.20;91.10
68924;DHT22;55961;52.156;20.942;2023-11-21T02:27:51;0.20;91.20
68924;DHT22;55961;52.156;20.942;2023-11-21T02:30:17;0.20;91.30
68924;DHT22;55961;52.156;20.942;2023-11-21T02:32:43;0.20;91.40
68924;DHT22;55961;52.156;20.942;2023-11-21T02:35:09;0.20;91.30
68924;DHT22;55961;52.156;20.942;2023-11-21T02:37:35;0.20;91.20
68924;DHT22;55961;52.156;20.942;2023-11-21T02:40:01;0.20;91.30
68924;DHT22;55961;52.156;20.942;2023-11-21T02:42:32;0.20;91.40
68924;DHT22;55961;52.156;20.942;2023-11-21T02:44:58;0.20;91.40
68924;DHT22;55961;52.156;20.942;2023-11-21T02:47:24;0.20;91.50
68924;DHT22;55961;52.156;20.942;2023-11-21T02:49:50;0.20;91.60
68924;DHT22;55961;52.156;20.942;2023-11-21T02:52:18;0.20;91.60
68924;DHT22;55961;52.156;20.942;2023-11-21T02:54:45;0.20;91.80
68924;DHT22;55961;52.156;20.942;2023-11-21T02:57:11;0.20;91.70
68924;DHT22;55961;52.156;20.942;2023-11-21T02:59:37;0.20;91.40
68924;DHT22;55961;52.156;20.942;2023-11-21T03:02:03;0.20;91.20
68924;DHT22;55961;52.156;20.942;2023-11-21T03:04:29;0.20;91.30
68924;DHT22;55961;52.156;20.942;2023-11-21T03:06:55;0.20;91.10
68924;DHT22;55961;52.156;20.942;2023-11-21T03:09:20;0.20;91.00
68924;DHT22;55961;52.156;20.942;2023-11-21T03:11:46;0.20;90.90
68924;DHT22;55961;52.156;20.942;2023-11-21T03:14:12;0.20;90.90
68924;DHT22;55961;52.156;20.942;2023-11-21T03:16:38;0.20;90.70
68924;DHT22;55961;52.156;20.942;2023-11-21T03:19:04;0.20;90.70
68924;DHT22;55961;52.156;20.942;2023-11-21T03:21:30;0.10;90.60
68924;DHT22;55961;52.156;20.942;2023-11-21T03:23:56;0.20;90.50
68924;DHT22;55961;52.156;20.942;2023-11-21T03:26:22;0.10;90.70
68924;DHT22;55961;52.156;20.942;2023-11-21T03:28:48;0.10;90.80
68924;DHT22;55961;52.156;20.942;2023-11-21T03:31:15;0.10;90.70
68924;DHT22;55961;52.156;20.942;2023-11-21T03:33:42;0.10;90.70
68924;DHT22;55961;52.156;20.942;2023-11-21T03:36:09;0.10;90.80
68924;DHT22;55961;52.156;20.942;2023-11-21T03:38:35;0.10;90.80
68924;DHT22;55961;52.156;20.942;2023-11-21T03:41:01;0.10;90.80
68924;DHT22;55961;52.156;20.942;2023-11-21T03:43:28;0.10;90.50
68924;DHT22;55961;52.156;20.942;2023-11-21T03:46:00;0.10;90.50
68924;DHT22;55961;52.156;20.942;2023-11-21T03:48:26;0.10;90.20
68924;DHT22;55961;52.156;20.942;2023-11-21T03:50:52;0.10;90.30
68924;DHT22;55961;52.156;20.942;2023-11-21T03:53:18;0.10;90.10
68924;DHT22;55961;52.156;20.942;2023-11-21T03:55:44;0.00;90.00
68924;DHT22;55961;52.156;20.942;2023-11-21T03:58:10;0.00;90.00
68924;DHT22;55961;52.156;20.942;2023-11-21T04:00:36;0.00;90.30
68924;DHT22;55961;52.156;20.942;2023-11-21T04:03:01;0.00;90.60
68924;DHT22;55961;52.156;20.942;2023-11-21T04:05:28;0.00;90.50
68924;DHT22;55961;52.156;20.942;2023-11-21T04:07:53;0.00;90.40
68924;DHT22;55961;52.156;20.942;2023-11-21T04:10:19;0.00;90.40
68924;DHT22;55961;52.156;20.942;2023-11-21T04:12:45;0.00;90.30
68924;DHT22;55961;52.156;20.942;2023-11-21T04:15:12;0.00;90.40
68924;DHT22;55961;52.156;20.942;2023-11-21T04:17:39;0.00;90.60
68924;DHT22;55961;52.156;20.942;2023-11-21T04:20:06;0.00;90.30
68924;DHT22;55961;52.156;20.942;2023-11-21T04:22:43;0.00;89.70
68924;DHT22;55961;52.156;20.942;2023-11-21T04:25:10;-0.10;89.80
68924;DHT22;55961;52.156;20.942;2023-11-21T04:27:38;-0.10;89.70
68924;DHT22;55961;52.156;20.942;2023-11-21T04:30:05;-0.10;89.80
68924;DHT22;55961;52.156;20.942;2023-11-21T04:32:31;-0.10;89.90
68924;DHT22;55961;52.156;20.942;2023-11-21T04:34:58;-0.10;89.70
68924;DHT22;55961;52.156;20.942;2023-11-21T04:37:24;-0.10;89.70
68924;DHT22;55961;52.156;20.942;2023-11-21T04:39:50;-0.10;90.10
68924;DHT22;55961;52.156;20.942;2023-11-21T04:42:16;-0.10;90.50
68924;DHT22;55961;52.156;20.942;2023-11-21T04:44:42;-0.10;90.20
68924;DHT22;55961;52.156;20.942;2023-11-21T04:47:09;-0.20;89.70
68924;DHT22;55961;52.156;20.942;2023-11-21T04:49:36;-0.20;89.90
68924;DHT22;55961;52.156;20.942;2023-11-21T04:52:02;-0.20;90.00
68924;DHT22;55961;52.156;20.942;2023-11-21T04:54:30;-0.20;90.10
68924;DHT22;55961;52.156;20.942;2023-11-21T04:56:56;-0.20;89.90
68924;DHT22;55961;52.156;20.942;2023-11-21T04:59:22;-0.20;90.00
68924;DHT22;55961;52.156;20.942;2023-11-21T05:01:53;-0.20;90.20
68924;DHT22;55961;52.156;20.942;2023-11-21T05:04:20;-0.20;90.40
68924;DHT22;55961;52.156;20.942;2023-11-21T05:06:48;-0.30;90.50
68924;DHT22;55961;52.156;20.942;2023-11-21T05:09:14;-0.20;90.60
68924;DHT22;55961;52.156;20.942;2023-11-21T05:11:41;-0.20;90.60
68924;DHT22;55961;52.156;20.942;2023-11-21T05:14:07;-0.20;90.60
68924;DHT22;55961;52.156;20.942;2023-11-21T05:16:34;-0.20;90.60
68924;DHT22;55961;52.156;20.942;2023-11-21T05:19:01;-0.20;90.30
68924;DHT22;55961;52.156;20.942;2023-11-21T05:21:27;-0.20;90.10
68924;DHT22;55961;52.156;20.942;2023-11-21T05:23:55;-0.20;90.00
68924;DHT22;55961;52.156;20.942;2023-11-21T05:26:21;-0.30;89.90
68924;DHT22;55961;52.156;20.942;2023-11-21T05:28:47;-0.20;90.00
68924;DHT22;55961;52.156;20.942;2023-11-21T05:31:13;-0.30;90.00
68924;DHT22;55961;52.156;20.942;2023-11-21T05:33:40;-0.30;89.90
68924;DHT22;55961;52.156;20.942;2023-11-21T05:36:07;-0.30;89.90
68924;DHT22;55961;52.156;20.942;2023-11-21T05:38:35;-0.30;89.40
68924;DHT22;55961;52.156;20.942;2023-11-21T05:41:01;-0.30;89.20
68924;DHT22;55961;52.156;20.942;2023-11-21T05:43:27;-0.30;89.40
68924;DHT22;55961;52.156;20.942;2023-11-21T05:45:55;-0.30;89.20
68924;DHT22;55961;52.156;20.942;2023-11-21T05:48:22;-0.30;89.20
68924;DHT22;55961;52.156;20.942;2023-11-21T05:50:48;-0.30;89.40
68924;DHT22;55961;52.156;20.942;2023-11-21T05:53:15;-0.30;89.50
68924;DHT22;55961;52.156;20.942;2023-11-21T05:55:42;-0.30;89.40
68924;DHT22;55961;52.156;20.942;2023-11-21T05:58:08;-0.30;89.20
68924;DHT22;55961;52.156;20.942;2023-11-21T06:00:34;-0.30;89.20
68924;DHT22;55961;52.156;20.942;2023-11-21T06:03:00;-0.30;89.20
68924;DHT22;55961;52.156;20.942;2023-11-21T06:05:27;-0.30;89.10
68924;DHT22;55961;52.156;20.942;2023-11-21T06:07:54;-0.30;89.30
68924;DHT22;55961;52.156;20.942;2023-11-21T06:10:21;-0.30;89.60
68924;DHT22;55961;52.156;20.942;2023-11-21T06:12:48;-0.30;89.50
68924;DHT22;55961;52.156;20.942;2023-11-21T06:15:14;-0.30;89.60
68924;DHT22;55961;52.156;20.942;2023-11-21T06:17:41;-0.30;89.80
68924;DHT22;55961;52.156;20.942;2023-11-21T06:20:09;-0.30;89.80
68924;DHT22;55961;52.156;20.942;2023-11-21T06:22:37;-0.30;89.70
68924;DHT22;55961;52.156;20.942;2023-11-21T06:25:04;-0.30;89.80
68924;DHT22;55961;52.156;20.942;2023-11-21T06:27:44;-0.30;89.60
68924;DHT22;55961;52.156;20.942;2023-11-21T06:30:11;-0.30;89.50
68924;DHT22;55961;52.156;20.942;2023-11-21T06:32:39;-0.30;89.60
68924;DHT22;55961;52.156;20.942;2023-11-21T06:35:07;-0.30;89.60
68924;DHT22;55961;52.156;20.942;2023-11-21T06:37:33;-0.30;89.50
68924;DHT22;55961;52.156;20.942;2023-11-21T06:40:00;-0.30;89.60
68924;DHT22;55961;52.156;20.942;2023-11-21T06:42:26;-0.30;89.40
68924;DHT22;55961;52.156;20.942;2023-11-21T06:44:53;-0.30;89.30
68924;DHT22;55961;52.156;20.942;2023-11-21T06:47:20;-0.30;89.20
68924;DHT22;55961;52.156;20.942;2023-11-21T06:49:46;-0.30;89.20
68924;DHT22;55961;52.156;20.942;2023-11-21T06:52:14;-0.30;89.40
68924;DHT22;55961;52.156;20.942;2023-11-21T06:54:40;-0.30;89.50
68924;DHT22;55961;52.156;20.942;2023-11-21T06:57:06;-0.30;89.70
68924;DHT22;55961;52.156;20.942;2023-11-21T06:59:32;-0.30;89.80
68924;DHT22;55961;52.156;20.942;2023-11-21T07:01:57;-0.30;89.90
68924;DHT22;55961;52.156;20.942;2023-11-21T07:04:24;-0.30;90.00
68924;DHT22;55961;52.156;20.942;2023-11-21T07:06:52;-0.30;90.10
68924;DHT22;55961;52.156;20.942;2023-11-21T07:09:19;-0.30;89.90
68924;DHT22;55961;52.156;20.942;2023-11-21T07:11:50;-0.30;89.90
68924;DHT22;55961;52.156;20.942;2023-11-21T07:14:16;-0.30;90.00
68924;DHT22;55961;52.156;20.942;2023-11-21T07:16:45;-0.30;89.80
68924;DHT22;55961;52.156;20.942;2023-11-21T07:19:11;-0.20;89.90
68924;DHT22;55961;52.156;20.942;2023-11-21T07:21:38;-0.20;89.90
68924;DHT22;55961;52.156;20.942;2023-11-21T07:24:06;-0.20;90.00
68924;DHT22;55961;52.156;20.942;2023-11-21T07:26:33;-0.20;90.00
68924;DHT22;55961;52.156;20.942;2023-11-21T07:29:00;-0.20;89.70
68924;DHT22;55961;52.156;20.942;2023-11-21T07:31:26;-0.20;89.70
68924;DHT22;55961;52.156;20.942;2023-11-21T07:33:52;-0.20;89.70
68924;DHT22;55961;52.156;20.942;2023-11-21T07:36:19;-0.20;89.50
68924;DHT22;55961;52.156;20.942;2023-11-21T07:38:47;-0.20;89.40
68924;DHT22;55961;52.156;20.942;2023-11-21T07:41:13;-0.20;89.40
68924;DHT22;55961;52.156;20.942;2023-11-21T07:43:44;-0.20;89.40
68924;DHT22;55961;52.156;20.942;2023-11-21T07:46:10;-0.20;89.50
68924;DHT22;55961;52.156;20.942;2023-11-21T07:48:39;-0.20;89.60
68924;DHT22;55961;52.156;20.942;2023-11-21T07:51:05;-0.30;89.50
68924;DHT22;55961;52.156;20.942;2023-11-21T07:53:33;-0.20;89.30
68924;DHT22;55961;52.156;20.942;2023-11-21T07:56:03;-0.20;89.30
68924;DHT22;55961;52.156;20.942;2023-11-21T07:58:29;-0.30;89.30
68924;DHT22;55961;52.156;20.942;2023-11-21T08:00:55;-0.30;89.30
68924;DHT22;55961;52.156;20.942;2023-11-21T08:03:21;-0.30;89.50
68924;DHT22;55961;52.156;20.942;2023-11-21T08:05:47;-0.30;89.40
68924;DHT22;55961;52.156;20.942;2023-11-21T08:08:13;-0.30;89.50
68924;DHT22;55961;52.156;20.942;2023-11-21T08:10:39;-0.30;89.60
68924;DHT22;55961;52.156;20.942;2023-11-21T08:13:05;-0.30;89.70
68924;DHT22;55961;52.156;20.942;2023-11-21T08:15:31;-0.30;89.50
68924;DHT22;55961;52.156;20.942;2023-11-21T08:17:58;-0.30;89.60
68924;DHT22;55961;52.156;20.942;2023-11-21T08:20:24;-0.30;89.60
68924;DHT22;55961;52.156;20.942;2023-11-21T08:22:51;-0.20;89.90
68924;DHT22;55961;52.156;20.942;2023-11-21T08:25:22;-0.20;89.90
68924;DHT22;55961;52.156;20.942;2023-11-21T08:27:48;-0.20;89.90
68924;DHT22;55961;52.156;20.942;2023-11-21T08:30:14;-0.20;90.00
68924;DHT22;55961;52.156;20.942;2023-11-21T08:32:42;-0.20;89.90
68924;DHT22;55961;52.156;20.942;2023-11-21T08:35:08;-0.20;89.60
68924;DHT22;55961;52.156;20.942;2023-11-21T08:37:35;-0.20;89.50
68924;DHT22;55961;52.156;20.942;2023-11-21T08:40:05;-0.20;89.40
68924;DHT22;55961;52.156;20.942;2023-11-21T08:42:35;-0.20;89.40
68924;DHT22;55961;52.156;20.942;2023-11-21T08:45:01;-0.20;89.30
68924;DHT22;55961;52.156;20.942;2023-11-21T08:47:27;-0.20;89.30
68924;DHT22;55961;52.156;20.942;2023-11-21T08:49:53;-0.20;89.30
68924;DHT22;55961;52.156;20.942;2023-11-21T08:52:19;-0.20;89.40
68924;DHT22;55961;52.156;20.942;2023-11-21T08:54:51;-0.20;89.50
68924;DHT22;55961;52.156;20.942;2023-11-21T08:57:25;-0.10;89.60
68924;DHT22;55961;52.156;20.942;2023-11-21T08:59:51;-0.10;89.00
68924;DHT22;55961;52.156;20.942;2023-11-21T09:02:22;-0.10;88.70
68924;DHT22;55961;52.156;20.942;2023-11-21T09:04:50;-0.10;88.50
68924;DHT22;55961;52.156;20.942;2023-11-21T09:07:19;-0.10;88.40
68924;DHT22;55961;52.156;20.942;2023-11-21T09:09:46;-0.10;88.20
68924;DHT22;55961;52.156;20.942;2023-11-21T09:12:14;-0.10;88.30
68924;DHT22;55961;52.156;20.942;2023-11-21T09:14:39;-0.20;88.40
68924;DHT22;55961;52.156;20.942;2023-11-21T09:17:06;-0.10;88.50
68924;DHT22;55961;52.156;20.942;2023-11-21T09:19:37;-0.10;88.70
68924;DHT22;55961;52.156;20.942;2023-11-21T09:22:04;-0.10;88.60
68924;DHT22;55961;52.156;20.942;2023-11-21T09:24:34;-0.20;88.40
68924;DHT22;55961;52.156;20.942;2023-11-21T09:27:00;-0.20;88.30
68924;DHT22;55961;52.156;20.942;2023-11-21T09:29:27;-0.20;88.40
68924;DHT22;55961;52.156;20.942;2023-11-21T09:31:53;-0.10;88.40
68924;DHT22;55961;52.156;20.942;2023-11-21T09:34:20;-0.20;88.20
68924;DHT22;55961;52.156;20.942;2023-11-21T09:36:47;-0.20;88.00
68924;DHT22;55961;52.156;20.942;2023-11-21T09:39:14;-0.10;88.00
68924;DHT22;55961;52.156;20.942;2023-11-21T09:41:49;-0.20;87.90
68924;DHT22;55961;52.156;20.942;2023-11-21T09:44:18;-0.10;87.90
68924;DHT22;55961;52.156;20.942;2023-11-21T09:46:48;-0.10;88.00
68924;DHT22;55961;52.156;20.942;2023-11-21T09:49:18;-0.10;88.10
68924;DHT22;55961;52.156;20.942;2023-11-21T09:51:47;-0.10;88.00
68924;DHT22;55961;52.156;20.942;2023-11-21T09:54:15;0.00;87.80
68924;DHT22;55961;52.156;20.942;2023-11-21T09:56:43;0.00;87.70
68924;DHT22;55961;52.156;20.942;2023-11-21T09:59:13;0.00;87.70
68924;DHT22;55961;52.156;20.942;2023-11-21T10:01:42;0.00;87.40
68924;DHT22;55961;52.156;20.942;2023-11-21T10:04:10;0.00;87.60
68924;DHT22;55961;52.156;20.942;2023-11-21T10:06:40;0.10;87.80
68924;DHT22;55961;52.156;20.942;2023-11-21T10:09:12;0.10;88.00
68924;DHT22;55961;52.156;20.942;2023-11-21T10:11:43;0.20;88.20
68924;DHT22;55961;52.156;20.942;2023-11-21T10:14:12;0.20;88.10
68924;DHT22;55961;52.156;20.942;2023-11-21T10:16:41;0.20;87.90
68924;DHT22;55961;52.156;20.942;2023-11-21T10:19:12;0.30;87.90
68924;DHT22;55961;52.156;20.942;2023-11-21T10:21:41;0.30;87.60
68924;DHT22;55961;52.156;20.942;2023-11-21T10:24:07;0.30;87.20
68924;DHT22;55961;52.156;20.942;2023-11-21T10:26:34;0.40;87.00
68924;DHT22;55961;52.156;20.942;2023-11-21T10:29:02;0.40;87.30
68924;DHT22;55961;52.156;20.942;2023-11-21T10:31:32;0.40;87.10
68924;DHT22;55961;52.156;20.942;2023-11-21T10:34:14;0.40;86.90
68924;DHT22;55961;52.156;20.942;2023-11-21T10:36:41;0.50;87.00
68924;DHT22;55961;52.156;20.942;2023-11-21T10:39:07;0.50;87.30
68924;DHT22;55961;52.156;20.942;2023-11-21T10:41:33;0.50;87.40
68924;DHT22;55961;52.156;20.942;2023-11-21T10:44:01;0.60;87.40
68924;DHT22;55961;52.156;20.942;2023-11-21T10:46:30;0.60;86.60
68924;DHT22;55961;52.156;20.942;2023-11-21T10:48:56;0.60;86.00
68924;DHT22;55961;52.156;20.942;2023-11-21T10:51:22;0.60;85.50
68924;DHT22;55961;52.156;20.942;2023-11-21T10:53:52;0.70;85.40
68924;DHT22;55961;52.156;20.942;2023-11-21T10:56:18;0.70;85.20
68924;DHT22;55961;52.156;20.942;2023-11-21T10:58:49;0.70;85.10
68924;DHT22;55961;52.156;20.942;2023-11-21T11:01:17;0.70;85.10
68924;DHT22;55961;52.156;20.942;2023-11-21T11:03:44;0.60;85.10
68924;DHT22;55961;52.156;20.942;2023-11-21T11:06:12;0.60;85.20
68924;DHT22;55961;52.156;20.942;2023-11-21T11:08:39;0.60;85.30
68924;DHT22;55961;52.156;20.942;2023-11-21T11:11:06;0.60;85.30
68924;DHT22;55961;52.156;20.942;2023-11-21T11:13:32;0.70;85.40
68924;DHT22;55961;52.156;20.942;2023-11-21T11:15:59;0.70;85.40
68924;DHT22;55961;52.156;20.942;2023-11-21T11:18:29;0.70;85.00
68924;DHT22;55961;52.156;20.942;2023-11-21T11:26:42;0.60;84.70
68924;DHT22;55961;52.156;20.942;2023-11-21T11:34:39;0.60;84.30
68924;DHT22;55961;52.156;20.942;2023-11-21T11:37:16;0.60;84.60
68924;DHT22;55961;52.156;20.942;2023-11-21T11:39:42;0.60;84.60
68924;DHT22;55961;52.156;20.942;2023-11-21T11:42:13;0.50;85.00
68924;DHT22;55961;52.156;20.942;2023-11-21T11:47:25;0.50;85.00
68924;DHT22;55961;52.156;20.942;2023-11-21T11:50:03;0.50;85.00
68924;DHT22;55961;52.156;20.942;2023-11-21T11:52:42;0.50;85.20
68924;DHT22;55961;52.156;20.942;2023-11-21T11:55:10;0.50;85.00
68924;DHT22;55961;52.156;20.942;2023-11-21T11:57:38;0.50;85.00
68924;DHT22;55961;52.156;20.942;2023-11-21T12:02:48;0.40;85.00
68924;DHT22;55961;52.156;20.942;2023-11-21T12:05:19;0.50;84.40
68924;DHT22;55961;52.156;20.942;2023-11-21T12:07:47;0.40;84.40
68924;DHT22;55961;52.156;20.942;2023-11-21T12:10:15;0.40;84.20
68924;DHT22;55961;52.156;20.942;2023-11-21T12:12:51;0.40;84.30
68924;DHT22;55961;52.156;20.942;2023-11-21T12:15:21;0.40;84.10
68924;DHT22;55961;52.156;20.942;2023-11-21T12:17:48;0.30;84.00
68924;DHT22;55961;52.156;20.942;2023-11-21T12:20:18;0.30;83.90
68924;DHT22;55961;52.156;20.942;2023-11-21T12:22:49;0.30;84.10
68924;DHT22;55961;52.156;20.942;2023-11-21T12:25:19;0.20;84.70
68924;DHT22;55961;52.156;20.942;2023-11-21T12:27:47;0.20;85.10
68924;DHT22;55961;52.156;20.942;2023-11-21T12:30:16;0.30;85.20
68924;DHT22;55961;52.156;20.942;2023-11-21T12:32:44;0.20;84.50
68924;DHT22;55961;52.156;20.942;2023-11-21T12:35:12;0.20;84.20
68924;DHT22;55961;52.156;20.942;2023-11-21T12:37:39;0.20;84.00
68924;DHT22;55961;52.156;20.942;2023-11-21T12:40:09;0.20;84.50
68924;DHT22;55961;52.156;20.942;2023-11-21T12:42:41;0.20;84.80
68924;DHT22;55961;52.156;20.942;2023-11-21T12:47:50;0.20;84.90
68924;DHT22;55961;52.156;20.942;2023-11-21T12:50:24;0.20;84.90
68924;DHT22;55961;52.156;20.942;2023-11-21T12:52:58;0.20;84.80
68924;DHT22;55961;52.156;20.942;2023-11-21T12:55:24;0.20;84.70
68924;DHT22;55961;52.156;20.942;2023-11-21T12:57:53;0.10;84.80
68924;DHT22;55961;52.156;20.942;2023-11-21T13:00:31;0.10;84.60
68924;DHT22;55961;52.156;20.942;2023-11-21T13:02:59;0.10;84.60
68924;DHT22;55961;52.156;20.942;2023-11-21T13:05:30;0.10;84.80
68924;DHT22;55961;52.156;20.942;2023-11-21T13:08:01;0.10;84.40
68924;DHT22;55961;52.156;20.942;2023-11-21T13:10:30;0.10;84.20
68924;DHT22;55961;52.156;20.942;2023-11-21T13:12:58;0.10;84.40
68924;DHT22;55961;52.156;20.942;2023-11-21T13:15:24;0.10;84.70
68924;DHT22;55961;52.156;20.942;2023-11-21T13:17:51;0.10;84.60
68924;DHT22;55961;52.156;20.942;2023-11-21T13:20:17;0.10;84.70
68924;DHT22;55961;52.156;20.942;2023-11-21T13:22:53;0.10;84.90
68924;DHT22;55961;52.156;20.942;2023-11-21T13:25:29;0.10;85.00
68924;DHT22;55961;52.156;20.942;2023-11-21T13:27:55;0.10;85.10
68924;DHT22;55961;52.156;20.942;2023-11-21T13:30:22;0.00;84.80
68924;DHT22;55961;52.156;20.942;2023-11-21T13:32:54;0.10;84.60
68924;DHT22;55961;52.156;20.942;2023-11-21T13:35:23;0.00;84.60
68924;DHT22;55961;52.156;20.942;2023-11-21T13:38:05;0.00;84.00
68924;DHT22;55961;52.156;20.942;2023-11-21T13:40:32;0.00;83.60
68924;DHT22;55961;52.156;20.942;2023-11-21T13:43:00;0.00;83.60
68924;DHT22;55961;52.156;20.942;2023-11-21T13:45:30;0.00;83.80
68924;DHT22;55961;52.156;20.942;2023-11-21T13:47:56;0.00;84.10
68924;DHT22;55961;52.156;20.942;2023-11-21T13:50:25;0.00;84.10
68924;DHT22;55961;52.156;20.942;2023-11-21T13:52:57;0.00;84.10
68924;DHT22;55961;52.156;20.942;2023-11-21T13:55:23;0.00;84.40
68924;DHT22;55961;52.156;20.942;2023-11-21T13:57:51;0.00;84.60
68924;DHT22;55961;52.156;20.942;2023-11-21T14:00:17;0.00;84.60
68924;DHT22;55961;52.156;20.942;2023-11-21T14:03:02;0.00;84.30
68924;DHT22;55961;52.156;20.942;2023-11-21T14:05:30;-0.10;84.30
68924;DHT22;55961;52.156;20.942;2023-11-21T14:07:57;-0.10;84.20
68924;DHT22;55961;52.156;20.942;2023-11-21T14:10:30;-0.10;84.10
68924;DHT22;55961;52.156;20.942;2023-11-21T14:13:06;-0.10;84.20
68924;DHT22;55961;52.156;20.942;2023-11-21T14:15:32;-0.10;84.30
68924;DHT22;55961;52.156;20.942;2023-11-21T14:18:03;-0.10;84.00
68924;DHT22;55961;52.156;20.942;2023-11-21T14:20:33;-0.10;83.90
68924;DHT22;55961;52.156;20.942;2023-11-21T14:23:02;-0.20;83.90
68924;DHT22;55961;52.156;20.942;2023-11-21T14:25:28;-0.20;84.20
68924;DHT22;55961;52.156;20.942;2023-11-21T14:27:54;-0.20;84.30
68924;DHT22;55961;52.156;20.942;2023-11-21T14:30:21;-0.20;84.10
68924;DHT22;55961;52.156;20.942;2023-11-21T14:32:48;-0.20;84.00
68924;DHT22;55961;52.156;20.942;2023-11-21T14:35:16;-0.20;83.80
68924;DHT22;55961;52.156;20.942;2023-11-21T14:37:43;-0.20;83.70
68924;DHT22;55961;52.156;20.942;2023-11-21T14:40:09;-0.20;83.80
68924;DHT22;55961;52.156;20.942;2023-11-21T14:42:35;-0.20;83.80
68924;DHT22;55961;52.156;20.942;2023-11-21T14:45:05;-0.20;84.10
68924;DHT22;55961;52.156;20.942;2023-11-21T14:47:33;-0.20;83.80
68924;DHT22;55961;52.156;20.942;2023-11-21T14:50:01;-0.30;83.60
68924;DHT22;55961;52.156;20.942;2023-11-21T14:52:47;-0.30;83.50
68924;DHT22;55961;52.156;20.942;2023-11-21T14:55:21;-0.30;83.70
68924;DHT22;55961;52.156;20.942;2023-11-21T14:58:09;-0.30;83.90
68924;DHT22;55961;52.156;20.942;2023-11-21T15:00:39;-0.30;83.60
68924;DHT22;55961;52.156;20.942;2023-11-21T15:03:12;-0.30;83.70
68924;DHT22;55961;52.156;20.942;2023-11-21T15:06:02;-0.40;83.90
68924;DHT22;55961;52.156;20.942;2023-11-21T15:08:52;-0.40;84.30
68924;DHT22;55961;52.156;20.942;2023-11-21T15:11:23;-0.40;84.40
68924;DHT22;55961;52.156;20.942;2023-11-21T15:13:57;-0.40;84.30
68924;DHT22;55961;52.156;20.942;2023-11-21T15:16:23;-0.40;84.20
68924;DHT22;55961;52.156;20.942;2023-11-21T15:18:52;-0.40;84.30
68924;DHT22;55961;52.156;20.942;2023-11-21T15:21:21;-0.40;84.70
68924;DHT22;55961;52.156;20.942;2023-11-21T15:23:50;-0.40;84.60
68924;DHT22;55961;52.156;20.942;2023-11-21T15:26:17;-0.40;84.30
68924;DHT22;55961;52.156;20.942;2023-11-21T15:28:43;-0.50;84.20
68924;DHT22;55961;52.156;20.942;2023-11-21T15:31:08;-0.50;84.10
68924;DHT22;55961;52.156;20.942;2023-11-21T15:33:35;-0.50;84.20
68924;DHT22;55961;52.156;20.942;2023-11-21T15:36:05;-0.50;84.20
68924;DHT22;55961;52.156;20.942;2023-11-21T15:38:35;-0.50;84.20
68924;DHT22;55961;52.156;20.942;2023-11-21T15:41:03;-0.50;84.40
68924;DHT22;55961;52.156;20.942;2023-11-21T15:43:29;-0.50;84.40
68924;DHT22;55961;52.156;20.942;2023-11-21T15:45:55;-0.50;84.60
68924;DHT22;55961;52.156;20.942;2023-11-21T15:48:21;-0.50;84.50